sensor_id;sensor_type;location;lat;lon;timestamp;pressure;altitude;pressure_sealevel;temperature
15701;BMP180;7950;42.744;23.174;2024-01-06T00:01:58;94179.81;;;6.46
15701;BMP180;7950;42.744;23.174;2024-01-06T00:04:27;94186.78;;;6.40
15701;BMP180;7950;42.744;23.174;2024-01-06T00:06:56;94205.66;;;6.47
15701;BMP180;7950;42.744;23.174;2024-01-06T00:09:25;94176.56;;;6.39
15701;BMP180;7950;42.744;23.174;2024-01-06T00:11:53;94199.34;;;6.32
15701;BMP180;7950;42.744;23.174;2024-01-06T00:14:23;94187.78;;;6.28
15701;BMP180;7950;42.744;23.174;2024-01-06T00:16:52;94192.66;;;6.24
15701;BMP180;7950;42.744;23.174;2024-01-06T00:19:20;94205.81;;;6.29
15701;BMP180;7950;42.744;23.174;2024-01-06T00:21:49;94186.53;;;6.30
15701;BMP180;7950;42.744;23.174;2024-01-06T00:24:18;94191.44;;;6.27
15701;BMP180;7950;42.744;23.174;2024-01-06T00:26:46;94190.97;;;6.30
15701;BMP180;7950;42.744;23.174;2024-01-06T00:29:15;94204.00;;;6.30
15701;BMP180;7950;42.744;23.174;2024-01-06T00:31:45;94195.06;;;6.26
15701;BMP180;7950;42.744;23.174;2024-01-06T00:34:14;94194.38;;;6.19
15701;BMP180;7950;42.744;23.174;2024-01-06T00:36:43;94186.66;;;6.24
15701;BMP180;7950;42.744;23.174;2024-01-06T00:39:12;94196.63;;;6.27
15701;BMP180;7950;42.744;23.174;2024-01-06T00:41:40;94187.13;;;6.21
15701;BMP180;7950;42.744;23.174;2024-01-06T00:44:09;94179.53;;;6.31
15701;BMP180;7950;42.744;23.174;2024-01-06T00:46:39;94186.91;;;6.34
15701;BMP180;7950;42.744;23.174;2024-01-06T00:49:09;94199.91;;;6.34
15701;BMP180;7950;42.744;23.174;2024-01-06T00:51:38;94200.59;;;6.29
15701;BMP180;7950;42.744;23.174;2024-01-06T00:54:23;94184.28;;;6.22
15701;BMP180;7950;42.744;23.174;2024-01-06T00:56:52;94182.47;;;6.23
15701;BMP180;7950;42.744;23.174;2024-01-06T00:59:25;94180.19;;;6.26
15701;BMP180;7950;42.744;23.174;2024-01-06T01:01:55;94172.19;;;6.16
15701;BMP180;7950;42.744;23.174;2024-01-06T01:04:27;94175.34;;;6.30
15701;BMP180;7950;42.744;23.174;2024-01-06T01:06:58;94162.78;;;6.15
15701;BMP180;7950;42.744;23.174;2024-01-06T01:09:28;94176.50;;;6.11
15701;BMP180;7950;42.744;23.174;2024-01-06T01:12:01;94180.94;;;5.99
15701;BMP180;7950;42.744;23.174;2024-01-06T01:14:29;94176.28;;;6.01
15701;BMP180;7950;42.744;23.174;2024-01-06T01:16:59;94165.75;;;6.07
15701;BMP180;7950;42.744;23.174;2024-01-06T01:19:30;94170.03;;;6.02
15701;BMP180;7950;42.744;23.174;2024-01-06T01:22:00;94168.47;;;6.01
15701;BMP180;7950;42.744;23.174;2024-01-06T01:24:29;94166.09;;;5.99
15701;BMP180;7950;42.744;23.174;2024-01-06T01:26:58;94160.75;;;6.06
15701;BMP180;7950;42.744;23.174;2024-01-06T01:29:26;94167.19;;;6.15
15701;BMP180;7950;42.744;23.174;2024-01-06T01:31:55;94159.28;;;6.10
15701;BMP180;7950;42.744;23.174;2024-01-06T01:34:24;94161.56;;;6.06
15701;BMP180;7950;42.744;23.174;2024-01-06T01:36:54;94154.31;;;6.08
15701;BMP180;7950;42.744;23.174;2024-01-06T01:39:23;94145.25;;;5.99
15701;BMP180;7950;42.744;23.174;2024-01-06T01:41:52;94150.69;;;5.98
15701;BMP180;7950;42.744;23.174;2024-01-06T01:44:20;94144.09;;;6.07
15701;BMP180;7950;42.744;23.174;2024-01-06T01:46:49;94128.28;;;5.97
15701;BMP180;7950;42.744;23.174;2024-01-06T01:49:18;94134.94;;;6.04
15701;BMP180;7950;42.744;23.174;2024-01-06T01:51:47;94138.16;;;5.95
15701;BMP180;7950;42.744;23.174;2024-01-06T01:54:19;94139.72;;;5.84
15701;BMP180;7950;42.744;23.174;2024-01-06T01:56:48;94137.75;;;5.80
15701;BMP180;7950;42.744;23.174;2024-01-06T01:59:18;94141.75;;;5.82
15701;BMP180;7950;42.744;23.174;2024-01-06T02:01:47;94129.53;;;5.83
15701;BMP180;7950;42.744;23.174;2024-01-06T02:04:17;94133.50;;;5.85
15701;BMP180;7950;42.744;23.174;2024-01-06T02:06:45;94123.09;;;5.85
15701;BMP180;7950;42.744;23.174;2024-01-06T02:09:14;94130.69;;;5.87
15701;BMP180;7950;42.744;23.174;2024-01-06T02:11:44;94124.13;;;5.84
15701;BMP180;7950;42.744;23.174;2024-01-06T02:14:13;94116.63;;;5.88
15701;BMP180;7950;42.744;23.174;2024-01-06T02:16:41;94123.53;;;5.82
15701;BMP180;7950;42.744;23.174;2024-01-06T02:19:13;94118.19;;;5.77
15701;BMP180;7950;42.744;23.174;2024-01-06T02:21:43;94113.22;;;5.76
15701;BMP180;7950;42.744;23.174;2024-01-06T02:24:13;94099.75;;;5.79
15701;BMP180;7950;42.744;23.174;2024-01-06T02:26:42;94102.56;;;5.77
15701;BMP180;7950;42.744;23.174;2024-01-06T02:29:10;94093.41;;;5.75
15701;BMP180;7950;42.744;23.174;2024-01-06T02:31:39;94087.75;;;5.78
15701;BMP180;7950;42.744;23.174;2024-01-06T02:34:08;94090.16;;;5.91
15701;BMP180;7950;42.744;23.174;2024-01-06T02:36:37;94098.63;;;5.86
15701;BMP180;7950;42.744;23.174;2024-01-06T02:39:06;94090.16;;;5.91
15701;BMP180;7950;42.744;23.174;2024-01-06T02:41:36;94077.91;;;5.80
15701;BMP180;7950;42.744;23.174;2024-01-06T02:44:05;94069.78;;;5.76
15701;BMP180;7950;42.744;23.174;2024-01-06T02:46:40;94073.63;;;5.74
15701;BMP180;7950;42.744;23.174;2024-01-06T02:49:12;94056.97;;;5.75
15701;BMP180;7950;42.744;23.174;2024-01-06T02:51:44;94068.97;;;5.76
15701;BMP180;7950;42.744;23.174;2024-01-06T02:54:15;94056.53;;;5.78
15701;BMP180;7950;42.744;23.174;2024-01-06T02:56:48;94065.91;;;5.79
15701;BMP180;7950;42.744;23.174;2024-01-06T02:59:21;94059.16;;;5.89
15701;BMP180;7950;42.744;23.174;2024-01-06T03:01:51;94067.09;;;5.83
15701;BMP180;7950;42.744;23.174;2024-01-06T03:04:23;94059.47;;;5.93
15701;BMP180;7950;42.744;23.174;2024-01-06T03:06:53;94058.03;;;5.85
15701;BMP180;7950;42.744;23.174;2024-01-06T03:09:28;94055.50;;;5.90
15701;BMP180;7950;42.744;23.174;2024-01-06T03:12:10;94051.66;;;5.93
15701;BMP180;7950;42.744;23.174;2024-01-06T03:14:41;94059.94;;;5.90
15701;BMP180;7950;42.744;23.174;2024-01-06T03:17:11;94045.34;;;5.89
15701;BMP180;7950;42.744;23.174;2024-01-06T03:19:43;94047.72;;;5.90
15701;BMP180;7950;42.744;23.174;2024-01-06T03:22:14;94057.44;;;5.95
15701;BMP180;7950;42.744;23.174;2024-01-06T03:24:44;94052.38;;;5.88
15701;BMP180;7950;42.744;23.174;2024-01-06T03:27:17;94043.97;;;5.86
15701;BMP180;7950;42.744;23.174;2024-01-06T03:29:48;94052.50;;;5.82
15701;BMP180;7950;42.744;23.174;2024-01-06T03:32:32;94041.94;;;5.88
15701;BMP180;7950;42.744;23.174;2024-01-06T03:35:01;94035.59;;;5.96
15701;BMP180;7950;42.744;23.174;2024-01-06T03:37:30;94043.59;;;6.06
15701;BMP180;7950;42.744;23.174;2024-01-06T03:39:59;94056.19;;;5.97
15701;BMP180;7950;42.744;23.174;2024-01-06T03:42:29;94047.03;;;5.95
15701;BMP180;7950;42.744;23.174;2024-01-06T03:44:58;94043.75;;;5.88
15701;BMP180;7950;42.744;23.174;2024-01-06T03:47:27;94057.44;;;5.95
15701;BMP180;7950;42.744;23.174;2024-01-06T03:49:55;94051.66;;;5.93
15701;BMP180;7950;42.744;23.174;2024-01-06T03:52:24;94040.94;;;5.89
15701;BMP180;7950;42.744;23.174;2024-01-06T03:54:53;94048.03;;;5.94
15701;BMP180;7950;42.744;23.174;2024-01-06T03:57:23;94051.66;;;5.93
15701;BMP180;7950;42.744;23.174;2024-01-06T03:59:53;94041.94;;;5.88
15701;BMP180;7950;42.744;23.174;2024-01-06T04:02:22;94039.13;;;5.90
15701;BMP180;7950;42.744;23.174;2024-01-06T04:04:51;94041.16;;;5.88
15701;BMP180;7950;42.744;23.174;2024-01-06T04:07:20;94039.34;;;5.88
15701;BMP180;7950;42.744;23.174;2024-01-06T04:09:48;94033.34;;;5.76
15701;BMP180;7950;42.744;23.174;2024-01-06T04:12:17;94048.94;;;5.76
15701;BMP180;7950;42.744;23.174;2024-01-06T04:14:46;94054.38;;;5.75
15701;BMP180;7950;42.744;23.174;2024-01-06T04:17:17;94046.56;;;5.75
15701;BMP180;7950;42.744;23.174;2024-01-06T04:19:46;94043.53;;;5.78
15701;BMP180;7950;42.744;23.174;2024-01-06T04:22:15;94045.00;;;5.74
15701;BMP180;7950;42.744;23.174;2024-01-06T04:24:43;94067.28;;;5.70
15701;BMP180;7950;42.744;23.174;2024-01-06T04:27:12;94063.34;;;5.67
15701;BMP180;7950;42.744;23.174;2024-01-06T04:29:41;94065.94;;;5.67
15701;BMP180;7950;42.744;23.174;2024-01-06T04:32:09;94065.25;;;5.72
15701;BMP180;7950;42.744;23.174;2024-01-06T04:34:39;94052.38;;;5.65
15701;BMP180;7950;42.744;23.174;2024-01-06T04:37:09;94053.28;;;5.59
15701;BMP180;7950;42.744;23.174;2024-01-06T04:39:38;94071.25;;;5.61
15701;BMP180;7950;42.744;23.174;2024-01-06T04:42:07;94066.50;;;5.58
15701;BMP180;7950;42.744;23.174;2024-01-06T04:44:39;94074.78;;;5.55
15701;BMP180;7950;42.744;23.174;2024-01-06T04:47:19;94079.50;;;5.58
15701;BMP180;7950;42.744;23.174;2024-01-06T04:49:55;94067.75;;;5.55
15701;BMP180;7950;42.744;23.174;2024-01-06T04:52:25;94070.13;;;5.57
15701;BMP180;7950;42.744;23.174;2024-01-06T04:54:54;94069.44;;;5.50
15701;BMP180;7950;42.744;23.174;2024-01-06T04:57:23;94068.56;;;5.56
15701;BMP180;7950;42.744;23.174;2024-01-06T04:59:52;94062.44;;;5.62
15701;BMP180;7950;42.744;23.174;2024-01-06T05:02:22;94044.47;;;5.49
15701;BMP180;7950;42.744;23.174;2024-01-06T05:04:51;94053.19;;;5.43
15701;BMP180;7950;42.744;23.174;2024-01-06T05:07:21;94048.53;;;5.45
15701;BMP180;7950;42.744;23.174;2024-01-06T05:09:50;94039.03;;;5.39
15701;BMP180;7950;42.744;23.174;2024-01-06T05:12:19;94034.75;;;5.33
15701;BMP180;7950;42.744;23.174;2024-01-06T05:14:48;94036.66;;;5.26
15701;BMP180;7950;42.744;23.174;2024-01-06T05:17:16;94015.31;;;5.24
15701;BMP180;7950;42.744;23.174;2024-01-06T05:19:45;94026.16;;;5.21
15701;BMP180;7950;42.744;23.174;2024-01-06T05:22:15;94011.09;;;5.23
15701;BMP180;7950;42.744;23.174;2024-01-06T05:24:45;94019.94;;;5.22
15701;BMP180;7950;42.744;23.174;2024-01-06T05:27:14;94016.78;;;5.20
15701;BMP180;7950;42.744;23.174;2024-01-06T05:29:43;94018.34;;;5.21
15701;BMP180;7950;42.744;23.174;2024-01-06T05:32:12;94025.47;;;5.25
15701;BMP180;7950;42.744;23.174;2024-01-06T05:34:40;94028.31;;;5.24
15701;BMP180;7950;42.744;23.174;2024-01-06T05:37:09;94019.59;;;5.18
15701;BMP180;7950;42.744;23.174;2024-01-06T05:39:38;94022.22;;;5.18
15701;BMP180;7950;42.744;23.174;2024-01-06T05:42:10;94020.75;;;5.22
15701;BMP180;7950;42.744;23.174;2024-01-06T05:44:39;94038.25;;;5.27
15701;BMP180;7950;42.744;23.174;2024-01-06T05:47:08;94025.72;;;5.24
15701;BMP180;7950;42.744;23.174;2024-01-06T05:49:41;94019.59;;;5.18
15701;BMP180;7950;42.744;23.174;2024-01-06T07:12:59;94033.94;;;6.18
15701;BMP180;7950;42.744;23.174;2024-01-06T07:19:38;94024.72;;;6.27
15701;BMP180;7950;42.744;23.174;2024-01-06T07:22:07;94032.31;;;6.28
15701;BMP180;7950;42.744;23.174;2024-01-06T07:24:36;94011.34;;;6.35
15701;BMP180;7950;42.744;23.174;2024-01-06T07:27:04;94016.78;;;6.33
15701;BMP180;7950;42.744;23.174;2024-01-06T07:29:34;94021.72;;;6.46
15701;BMP180;7950;42.744;23.174;2024-01-06T07:32:04;94027.31;;;6.55
15701;BMP180;7950;42.744;23.174;2024-01-06T07:34:33;94012.78;;;6.59
15701;BMP180;7950;42.744;23.174;2024-01-06T07:37:02;94018.66;;;6.66
15701;BMP180;7950;42.744;23.174;2024-01-06T07:39:31;94017.25;;;6.75
15701;BMP180;7950;42.744;23.174;2024-01-06T07:42:25;94018.66;;;6.82
15701;BMP180;7950;42.744;23.174;2024-01-06T07:46:27;94011.06;;;6.97
15701;BMP180;7950;42.744;23.174;2024-01-06T07:49:14;94022.53;;;7.13
15701;BMP180;7950;42.744;23.174;2024-01-06T07:51:47;94017.72;;;7.21
15701;BMP180;7950;42.744;23.174;2024-01-06T07:54:16;94017.69;;;7.38
15701;BMP180;7950;42.744;23.174;2024-01-06T07:56:45;94019.25;;;7.39
15701;BMP180;7950;42.744;23.174;2024-01-06T07:59:14;94008.50;;;7.52
15701;BMP180;7950;42.744;23.174;2024-01-06T08:01:45;94010.34;;;7.73
15701;BMP180;7950;42.744;23.174;2024-01-06T08:04:15;94020.91;;;7.83
15701;BMP180;7950;42.744;23.174;2024-01-06T08:06:45;94007.50;;;7.96
15701;BMP180;7950;42.744;23.174;2024-01-06T08:09:14;94008.66;;;8.05
15701;BMP180;7950;42.744;23.174;2024-01-06T08:11:43;94009.63;;;8.20
15701;BMP180;7950;42.744;23.174;2024-01-06T08:14:15;94011.88;;;8.33
15701;BMP180;7950;42.744;23.174;2024-01-06T08:16:46;94003.63;;;8.46
15701;BMP180;7950;42.744;23.174;2024-01-06T08:19:15;94002.69;;;8.52
15701;BMP180;7950;42.744;23.174;2024-01-06T08:21:44;94014.56;;;8.65
15701;BMP180;7950;42.744;23.174;2024-01-06T08:24:12;94006.63;;;8.86
15701;BMP180;7950;42.744;23.174;2024-01-06T08:26:41;94001.72;;;8.90
15701;BMP180;7950;42.744;23.174;2024-01-06T08:29:10;94009.41;;;9.07
15701;BMP180;7950;42.744;23.174;2024-01-06T08:31:38;94010.34;;;9.27
15701;BMP180;7950;42.744;23.174;2024-01-06T08:34:09;93997.50;;;9.62
15701;BMP180;7950;42.744;23.174;2024-01-06T08:36:38;94005.78;;;9.96
15701;BMP180;7950;42.744;23.174;2024-01-06T08:39:06;94012.50;;;10.28
15701;BMP180;7950;42.744;23.174;2024-01-06T08:41:36;94000.78;;;10.71
15701;BMP180;7950;42.744;23.174;2024-01-06T08:44:04;94002.13;;;11.18
15701;BMP180;7950;42.744;23.174;2024-01-06T08:46:33;94001.59;;;10.96
15701;BMP180;7950;42.744;23.174;2024-01-06T08:49:02;94005.78;;;10.77
15701;BMP180;7950;42.744;23.174;2024-01-06T08:51:32;93996.59;;;11.00
15701;BMP180;7950;42.744;23.174;2024-01-06T08:54:01;93981.88;;;11.64
15701;BMP180;7950;42.744;23.174;2024-01-06T08:56:33;93983.56;;;12.13
15701;BMP180;7950;42.744;23.174;2024-01-06T08:59:02;93978.25;;;12.23
15701;BMP180;7950;42.744;23.174;2024-01-06T09:01:31;93973.66;;;12.92
15701;BMP180;7950;42.744;23.174;2024-01-06T09:04:01;93962.56;;;13.34
15701;BMP180;7950;42.744;23.174;2024-01-06T09:06:32;93971.75;;;13.31
15701;BMP180;7950;42.744;23.174;2024-01-06T09:09:01;93961.22;;;13.31
15701;BMP180;7950;42.744;23.174;2024-01-06T09:11:30;93967.97;;;13.14
15701;BMP180;7950;42.744;23.174;2024-01-06T09:13:58;93973.16;;;12.85
15701;BMP180;7950;42.744;23.174;2024-01-06T09:16:28;93966.59;;;12.44
15701;BMP180;7950;42.744;23.174;2024-01-06T09:18:56;93958.84;;;12.14
15701;BMP180;7950;42.744;23.174;2024-01-06T09:21:25;93943.72;;;11.81
15701;BMP180;7950;42.744;23.174;2024-01-06T09:23:55;93952.22;;;11.48
15701;BMP180;7950;42.744;23.174;2024-01-06T09:26:24;93948.09;;;11.02
15701;BMP180;7950;42.744;23.174;2024-01-06T09:28:53;93947.00;;;10.78
15701;BMP180;7950;42.744;23.174;2024-01-06T09:31:22;93933.88;;;10.43
15701;BMP180;7950;42.744;23.174;2024-01-06T09:33:51;93930.16;;;10.14
15701;BMP180;7950;42.744;23.174;2024-01-06T09:36:20;93929.25;;;9.94
15701;BMP180;7950;42.744;23.174;2024-01-06T09:38:48;93930.03;;;9.89
15701;BMP180;7950;42.744;23.174;2024-01-06T09:41:18;93925.28;;;9.76
15701;BMP180;7950;42.744;23.174;2024-01-06T09:43:49;93916.34;;;9.72
15701;BMP180;7950;42.744;23.174;2024-01-06T09:46:24;93914.19;;;9.54
15701;BMP180;7950;42.744;23.174;2024-01-06T09:48:54;93907.84;;;9.45
15701;BMP180;7950;42.744;23.174;2024-01-06T09:51:25;93904.09;;;9.26
15701;BMP180;7950;42.744;23.174;2024-01-06T09:53:58;93898.31;;;9.24
15701;BMP180;7950;42.744;23.174;2024-01-06T09:56:29;93888.31;;;9.16
15701;BMP180;7950;42.744;23.174;2024-01-06T09:58:58;93894.81;;;9.03
15701;BMP180;7950;42.744;23.174;2024-01-06T10:01:27;93888.16;;;8.86
15701;BMP180;7950;42.744;23.174;2024-01-06T10:03:56;93889.72;;;8.82
15701;BMP180;7950;42.744;23.174;2024-01-06T10:06:25;93878.69;;;8.80
15701;BMP180;7950;42.744;23.174;2024-01-06T10:08:54;93871.38;;;8.77
15701;BMP180;7950;42.744;23.174;2024-01-06T10:11:23;93871.41;;;8.82
15701;BMP180;7950;42.744;23.174;2024-01-06T10:13:53;93864.06;;;8.84
15701;BMP180;7950;42.744;23.174;2024-01-06T10:16:22;93871.41;;;8.82
15701;BMP180;7950;42.744;23.174;2024-01-06T10:18:52;93866.47;;;8.90
15701;BMP180;7950;42.744;23.174;2024-01-06T10:21:21;93864.19;;;8.99
15701;BMP180;7950;42.744;23.174;2024-01-06T10:23:50;93862.13;;;9.06
15701;BMP180;7950;42.744;23.174;2024-01-06T10:26:19;93851.91;;;9.04
15701;BMP180;7950;42.744;23.174;2024-01-06T10:28:48;93842.25;;;9.10
15701;BMP180;7950;42.744;23.174;2024-01-06T10:31:19;93852.50;;;9.17
15701;BMP180;7950;42.744;23.174;2024-01-06T10:33:48;93843.63;;;9.23
15701;BMP180;7950;42.744;23.174;2024-01-06T10:36:17;93835.75;;;9.23
15701;BMP180;7950;42.744;23.174;2024-01-06T10:38:47;93826.13;;;9.33
15701;BMP180;7950;42.744;23.174;2024-01-06T10:41:17;93830.31;;;9.29
15701;BMP180;7950;42.744;23.174;2024-01-06T10:43:47;93829.19;;;9.15
15701;BMP180;7950;42.744;23.174;2024-01-06T10:46:20;93816.94;;;9.26
15701;BMP180;7950;42.744;23.174;2024-01-06T10:48:51;93822.97;;;9.26
15701;BMP180;7950;42.744;23.174;2024-01-06T10:51:23;93815.91;;;9.32
15701;BMP180;7950;42.744;23.174;2024-01-06T10:53:53;93816.72;;;9.32
15701;BMP180;7950;42.744;23.174;2024-01-06T10:56:24;93802.06;;;9.36
15701;BMP180;7950;42.744;23.174;2024-01-06T10:58:56;93791.34;;;9.33
15701;BMP180;7950;42.744;23.174;2024-01-06T11:06:01;93782.44;;;9.29
15701;BMP180;7950;42.744;23.174;2024-01-06T11:08:32;93779.03;;;9.38
15701;BMP180;7950;42.744;23.174;2024-01-06T11:11:02;93791.63;;;9.46
15701;BMP180;7950;42.744;23.174;2024-01-06T11:13:32;93787.72;;;9.49
15701;BMP180;7950;42.744;23.174;2024-01-06T11:16:01;93789.31;;;9.55
15701;BMP180;7950;42.744;23.174;2024-01-06T11:18:34;93791.13;;;9.59
15701;BMP180;7950;42.744;23.174;2024-01-06T11:21:18;93781.72;;;9.63
15701;BMP180;7950;42.744;23.174;2024-01-06T11:24:18;93774.66;;;9.69
15701;BMP180;7950;42.744;23.174;2024-01-06T11:26:55;93782.28;;;9.70
15701;BMP180;7950;42.744;23.174;2024-01-06T11:29:24;93758.16;;;9.63
15701;BMP180;7950;42.744;23.174;2024-01-06T11:32:28;93749.00;;;9.71
15701;BMP180;7950;42.744;23.174;2024-01-06T11:35:06;93747.47;;;9.95
15701;BMP180;7950;42.744;23.174;2024-01-06T11:37:52;93733.59;;;10.09
15701;BMP180;7950;42.744;23.174;2024-01-06T11:40:31;93723.63;;;10.26
15701;BMP180;7950;42.744;23.174;2024-01-06T11:43:04;93719.94;;;10.22
15701;BMP180;7950;42.744;23.174;2024-01-06T11:45:35;93706.31;;;10.25
15701;BMP180;7950;42.744;23.174;2024-01-06T11:48:06;93705.56;;;10.25
15701;BMP180;7950;42.744;23.174;2024-01-06T11:50:37;93699.00;;;10.27
15701;BMP180;7950;42.744;23.174;2024-01-06T11:53:09;93694.25;;;10.29
15701;BMP180;7950;42.744;23.174;2024-01-06T11:55:39;93690.34;;;10.32
15701;BMP180;7950;42.744;23.174;2024-01-06T11:58:09;93701.09;;;10.25
15701;BMP180;7950;42.744;23.174;2024-01-06T12:00:38;93684.09;;;10.13
15701;BMP180;7950;42.744;23.174;2024-01-06T12:03:09;93695.88;;;10.05
15701;BMP180;7950;42.744;23.174;2024-01-06T12:05:38;93670.69;;;10.04
15701;BMP180;7950;42.744;23.174;2024-01-06T12:08:11;93664.94;;;10.02
15701;BMP180;7950;42.744;23.174;2024-01-06T12:10:40;93672.81;;;10.07
15701;BMP180;7950;42.744;23.174;2024-01-06T12:13:11;93674.13;;;9.95
15701;BMP180;7950;42.744;23.174;2024-01-06T12:15:45;93676.47;;;9.96
15701;BMP180;7950;42.744;23.174;2024-01-06T12:18:14;93670.69;;;9.99
15701;BMP180;7950;42.744;23.174;2024-01-06T12:20:44;93664.94;;;9.92
15701;BMP180;7950;42.744;23.174;2024-01-06T12:23:24;93664.41;;;9.95
15701;BMP180;7950;42.744;23.174;2024-01-06T12:25:54;93670.69;;;9.99
15701;BMP180;7950;42.744;23.174;2024-01-06T12:28:23;93677.50;;;10.00
15701;BMP180;7950;42.744;23.174;2024-01-06T12:30:53;93678.03;;;9.97
15701;BMP180;7950;42.744;23.174;2024-01-06T12:33:22;93659.16;;;10.00
15701;BMP180;7950;42.744;23.174;2024-01-06T12:35:51;93671.75;;;9.98
15701;BMP180;7950;42.744;23.174;2024-01-06T12:38:21;93662.34;;;9.92
15701;BMP180;7950;42.744;23.174;2024-01-06T12:40:50;93669.13;;;9.98
15701;BMP180;7950;42.744;23.174;2024-01-06T12:43:18;93656.28;;;9.97
15701;BMP180;7950;42.744;23.174;2024-01-06T12:45:47;93633.50;;;10.02
15701;BMP180;7950;42.744;23.174;2024-01-06T12:48:16;93646.06;;;10.20
15701;BMP180;7950;42.744;23.174;2024-01-06T12:50:45;93652.84;;;10.31
15701;BMP180;7950;42.744;23.174;2024-01-06T12:53:13;93636.06;;;10.37
15701;BMP180;7950;42.744;23.174;2024-01-06T12:55:44;93633.63;;;10.51
15701;BMP180;7950;42.744;23.174;2024-01-06T12:58:13;93629.44;;;10.55
15701;BMP180;7950;42.744;23.174;2024-01-06T13:00:41;93641.50;;;10.61
15701;BMP180;7950;42.744;23.174;2024-01-06T13:03:10;93627.56;;;10.65
15701;BMP180;7950;42.744;23.174;2024-01-06T13:05:40;93628.00;;;10.82
15701;BMP180;7950;42.744;23.174;2024-01-06T13:08:10;93622.69;;;10.92
15701;BMP180;7950;42.744;23.174;2024-01-06T13:10:40;93631.84;;;11.00
15701;BMP180;7950;42.744;23.174;2024-01-06T13:13:13;93634.97;;;11.07
15701;BMP180;7950;42.744;23.174;2024-01-06T13:15:42;93634.63;;;11.18
15701;BMP180;7950;42.744;23.174;2024-01-06T13:18:11;93644.50;;;11.36
15701;BMP180;7950;42.744;23.174;2024-01-06T13:20:41;93632.84;;;11.52
15701;BMP180;7950;42.744;23.174;2024-01-06T13:23:10;93620.63;;;11.71
15701;BMP180;7950;42.744;23.174;2024-01-06T13:25:39;93610.91;;;11.72
15701;BMP180;7950;42.744;23.174;2024-01-06T13:28:08;93610.16;;;11.66
15701;BMP180;7950;42.744;23.174;2024-01-06T13:30:38;93606.03;;;11.55
15701;BMP180;7950;42.744;23.174;2024-01-06T13:33:09;93604.44;;;11.54
15701;BMP180;7950;42.744;23.174;2024-01-06T13:35:38;93608.66;;;11.50
15701;BMP180;7950;42.744;23.174;2024-01-06T13:38:07;93600.53;;;11.52
15701;BMP180;7950;42.744;23.174;2024-01-06T13:40:38;93606.03;;;11.55
15701;BMP180;7950;42.744;23.174;2024-01-06T13:44:09;93605.78;;;11.52
15701;BMP180;7950;42.744;23.174;2024-01-06T13:47:52;93602.88;;;11.53
15701;BMP180;7950;42.744;23.174;2024-01-06T13:50:21;93600.34;;;11.43
15701;BMP180;7950;42.744;23.174;2024-01-06T13:52:50;93586.72;;;11.36
15701;BMP180;7950;42.744;23.174;2024-01-06T13:55:19;93603.94;;;11.19
15701;BMP180;7950;42.744;23.174;2024-01-06T13:57:49;93592.66;;;11.13
15701;BMP180;7950;42.744;23.174;2024-01-06T14:00:20;93584.50;;;11.20
15701;BMP180;7950;42.744;23.174;2024-01-06T14:02:53;93587.22;;;11.00
15701;BMP180;7950;42.744;23.174;2024-01-06T14:05:26;93588.16;;;10.80
15701;BMP180;7950;42.744;23.174;2024-01-06T14:08:02;93582.94;;;10.70
15701;BMP180;7950;42.744;23.174;2024-01-06T14:10:35;93588.75;;;10.67
15701;BMP180;7950;42.744;23.174;2024-01-06T14:13:05;93604.59;;;10.37
15701;BMP180;7950;42.744;23.174;2024-01-06T14:15:35;93594.66;;;10.34
15701;BMP180;7950;42.744;23.174;2024-01-06T14:18:07;93598.31;;;10.33
15701;BMP180;7950;42.744;23.174;2024-01-06T14:20:39;93591.47;;;10.42
15701;BMP180;7950;42.744;23.174;2024-01-06T14:23:08;93567.84;;;10.47
15701;BMP180;7950;42.744;23.174;2024-01-06T14:25:37;93562.03;;;10.60
15701;BMP180;7950;42.744;23.174;2024-01-06T14:28:06;93571.19;;;10.63
15701;BMP180;7950;42.744;23.174;2024-01-06T14:30:35;93580.91;;;10.57
15701;BMP180;7950;42.744;23.174;2024-01-06T14:33:05;93594.53;;;10.64
15701;BMP180;7950;42.744;23.174;2024-01-06T14:35:34;93577.03;;;10.45
15701;BMP180;7950;42.744;23.174;2024-01-06T14:38:03;93577.88;;;10.40
15701;BMP180;7950;42.744;23.174;2024-01-06T14:40:32;93593.34;;;10.32
15701;BMP180;7950;42.744;23.174;2024-01-06T14:43:02;93583.16;;;10.25
15701;BMP180;7950;42.744;23.174;2024-01-06T14:45:31;93591.81;;;10.21
15701;BMP180;7950;42.744;23.174;2024-01-06T14:48:00;93589.16;;;10.31
15701;BMP180;7950;42.744;23.174;2024-01-06T14:50:30;93587.38;;;10.16
15701;BMP180;7950;42.744;23.174;2024-01-06T14:52:59;93578.22;;;10.09
15701;BMP180;7950;42.744;23.174;2024-01-06T14:55:28;93566.94;;;10.03
15701;BMP180;7950;42.744;23.174;2024-01-06T14:57:56;93577.19;;;10.00
15701;BMP180;7950;42.744;23.174;2024-01-06T15:00:25;93573.53;;;9.91
15701;BMP180;7950;42.744;23.174;2024-01-06T15:02:54;93587.41;;;9.86
15701;BMP180;7950;42.744;23.174;2024-01-06T15:05:24;93579.59;;;9.71
15701;BMP180;7950;42.744;23.174;2024-01-06T15:07:57;93578.56;;;9.57
15701;BMP180;7950;42.744;23.174;2024-01-06T15:10:25;93572.28;;;9.53
15701;BMP180;7950;42.744;23.174;2024-01-06T15:12:54;93581.19;;;9.37
15701;BMP180;7950;42.744;23.174;2024-01-06T15:15:23;93583.53;;;9.34
15701;BMP180;7950;42.744;23.174;2024-01-06T15:17:52;93569.66;;;9.08
15701;BMP180;7950;42.744;23.174;2024-01-06T15:20:21;93577.22;;;8.99
15701;BMP180;7950;42.744;23.174;2024-01-06T15:22:50;93573.81;;;8.89
15701;BMP180;7950;42.744;23.174;2024-01-06T15:25:20;93560.97;;;8.72
15701;BMP180;7950;42.744;23.174;2024-01-06T15:27:49;93574.03;;;8.67
15701;BMP180;7950;42.744;23.174;2024-01-06T15:30:17;93551.81;;;8.60
15701;BMP180;7950;42.744;23.174;2024-01-06T15:32:46;93543.16;;;8.49
15701;BMP180;7950;42.744;23.174;2024-01-06T15:35:16;93545.50;;;8.46
15701;BMP180;7950;42.744;23.174;2024-01-06T15:37:49;93557.19;;;8.28
15701;BMP180;7950;42.744;23.174;2024-01-06T15:40:19;93546.22;;;8.21
15701;BMP180;7950;42.744;23.174;2024-01-06T15:42:48;93544.81;;;8.09
15701;BMP180;7950;42.744;23.174;2024-01-06T15:45:17;93554.19;;;8.00
15701;BMP180;7950;42.744;23.174;2024-01-06T15:47:46;93552.56;;;7.89
15701;BMP180;7950;42.744;23.174;2024-01-06T15:50:15;93554.34;;;7.78
15701;BMP180;7950;42.744;23.174;2024-01-06T15:52:44;93557.69;;;7.74
15701;BMP180;7950;42.744;23.174;2024-01-06T15:55:14;93551.94;;;7.67
15701;BMP180;7950;42.744;23.174;2024-01-06T15:57:45;93540.41;;;7.63
15701;BMP180;7950;42.744;23.174;2024-01-06T16:00:15;93541.25;;;7.68
15701;BMP180;7950;42.744;23.174;2024-01-06T16:02:45;93535.13;;;7.53
15701;BMP180;7950;42.744;23.174;2024-01-06T16:05:14;93533.38;;;7.63
15701;BMP180;7950;42.744;23.174;2024-01-06T16:07:43;93522.91;;;7.58
15701;BMP180;7950;42.744;23.174;2024-01-06T16:10:12;93525.22;;;7.55